Hovedside
METAR-TAF:

METAR-TAF

Lufthavner :

Namsos lufthavn

Namsos, Norge

breddegrad: 64-28N, lengdegrad: 011-35E, høyde over havet: 0 m

Gjeldene værobservasjon

Denne rapporten ble laget for 1 time og 29 minutter siden, klokken 20:50 UTC
Vind 1 kt fra skiftende retning
Temperatur -1°C
Luftfuktighet 86%
Trykk 1008 hPa
Sikt: 5000 m
Spredte skyer i en høyde av 2500 ft
Spredte skyer i en høyde av 4400 ft
regnbyger i nærheten

METAR: ENNM 242050Z VRB01KT 9999 5000W VCSH SCT025 SCT044 M01/M03 Q1008

Tid: 23:19 (22:19 UTC)


TAF: fraværende

Værobservasjoner og værvarsel for over 4000 flyplasser (METAR- og TAF-rapporter).

Tilgjengelige stasjoner er representert av de røde og gule prikkene på kartet.

Hold musepekeren over prikken for å se navnet på stasjonen.

Klikk så for å se værobservasjoner og -varsler.

For å forandre kartet kan du klikke på den grønne knappen med svart kryss for å zoome inn, på den grønne knappen med strek for å zoome ut, eller på de grønne pilene for å se tilstøtende kart.


METAR-TAF: